Time,TemperatureF,DewpointF,PressureIn,WindDirection,WindDirectionDegrees,WindSpeedMPH,WindSpeedGustMPH,Humidity,HourlyPrecipIn,Conditions,Clouds,dailyrainin,SoftwareType,DateUTC
2013-04-28 00:01:00,73.6,64.6,30.12,NNE,15,6.5,10.7,74,0.00,,---,0.00,VWS V13.01,2013-04-28 04:01:00,
2013-04-28 00:02:00,73.9,65.0,30.13,NE,38,7.3,11.2,74,0.00,,---,0.00,VWS V13.01,2013-04-28 04:02:00,
2013-04-28 00:03:00,74.0,65.0,30.12,ENE,60,4.3,8.8,73,0.00,,---,0.00,VWS V13.01,2013-04-28 04:03:00,
2013-04-28 00:07:00,74.3,65.0,30.13,NNE,28,6.9,7.3,73,0.00,,---,0.00,VWS V13.01,2013-04-28 04:07:00,
2013-04-28 00:12:00,74.6,65.5,30.12,NE,56,4.8,8.6,73,0.00,,---,0.00,VWS V13.01,2013-04-28 04:12:00,
2013-04-28 00:17:00,74.8,65.4,30.12,NE,53,6.1,11.2,72,0.00,,---,0.00,VWS V13.01,2013-04-28 04:17:00,
2013-04-28 00:22:00,75.1,65.4,30.12,NNE,22,9.4,10.4,72,0.00,,---,0.00,VWS V13.01,2013-04-28 04:22:00,
2013-04-28 00:27:00,75.1,64.5,30.12,NE,45,7.6,9.9,70,0.00,,---,0.00,VWS V13.01,2013-04-28 04:27:00,
2013-04-28 00:32:00,75.1,64.5,30.12,NNE,28,3.9,6.0,70,0.00,,---,0.00,VWS V13.01,2013-04-28 04:32:00,
2013-04-28 00:37:00,75.0,63.8,30.12,NNE,30,5.3,13.9,68,0.00,,---,0.00,VWS V13.01,2013-04-28 04:37:00,
2013-04-28 00:42:00,75.0,63.7,30.12,ENE,59,2.7,5.9,68,0.00,,---,0.00,VWS V13.01,2013-04-28 04:42:00,
2013-04-28 00:47:00,74.7,62.3,30.11,NNE,24,10.4,12.5,65,0.00,,---,0.00,VWS V13.01,2013-04-28 04:47:00,
2013-04-28 00:52:00,74.7,61.3,30.11,NE,52,9.8,13.5,63,0.00,,---,0.00,VWS V13.01,2013-04-28 04:52:00,
2013-04-28 00:57:00,74.9,61.6,30.11,NNE,31,4.7,10.9,63,0.00,,---,0.00,VWS V13.01,2013-04-28 04:57:00,
2013-04-28 01:02:00,75.1,62.2,30.10,NE,49,7.9,9.9,64,0.00,,---,0.00,VWS V13.01,2013-04-28 05:02:00,
2013-04-28 01:07:00,74.8,61.5,30.10,NE,55,7.4,11.1,63,0.00,,---,0.00,VWS V13.01,2013-04-28 05:07:00,
2013-04-28 01:12:00,75.0,62.1,30.10,NE,45,4.0,9.6,64,0.00,,---,0.00,VWS V13.01,2013-04-28 05:12:00,
2013-04-28 01:17:00,74.8,63.1,30.10,NE,52,7.3,10.5,67,0.00,,---,0.00,VWS V13.01,2013-04-28 05:17:00,
2013-04-28 01:22:00,74.9,63.5,30.10,NE,34,7.1,7.8,68,0.00,,---,0.00,VWS V13.01,2013-04-28 05:22:00,
2013-04-28 01:27:00,75.0,63.4,30.10,NE,46,6.3,8.9,67,0.00,,---,0.00,VWS V13.01,2013-04-28 05:27:00,
2013-04-28 01:32:00,75.0,63.2,30.10,NE,45,7.6,9.3,67,0.00,,---,0.00,VWS V13.01,2013-04-28 05:32:00,
2013-04-28 01:37:00,74.8,63.2,30.10,NE,55,5.0,5.0,67,0.00,,---,0.00,VWS V13.01,2013-04-28 05:37:00,
2013-04-28 01:42:00,74.8,63.4,30.10,NE,39,6.0,7.0,68,0.00,,---,0.00,VWS V13.01,2013-04-28 05:42:00,
2013-04-28 01:47:00,74.9,64.1,30.10,NE,39,5.3,6.8,69,0.00,,---,0.00,VWS V13.01,2013-04-28 05:47:00,
2013-04-28 01:52:00,75.0,64.1,30.10,NE,41,6.5,6.5,69,0.00,,---,0.00,VWS V13.01,2013-04-28 05:52:00,
2013-04-28 01:57:00,74.8,63.8,30.10,ENE,72,2.6,3.9,68,0.00,,---,0.00,VWS V13.01,2013-04-28 05:57:00,
2013-04-28 02:02:00,74.8,64.1,30.10,ENE,58,6.7,7.0,69,0.00,,---,0.00,VWS V13.01,2013-04-28 06:02:00,
2013-04-28 02:07:00,74.5,63.9,30.10,NE,51,5.1,8.1,70,0.00,,---,0.00,VWS V13.01,2013-04-28 06:07:00,
2013-04-28 02:12:00,74.6,64.0,30.10,NNE,27,4.6,8.1,70,0.00,,---,0.00,VWS V13.01,2013-04-28 06:12:00,
2013-04-28 02:17:00,74.7,63.6,30.09,ESE,105,6.8,6.8,68,0.00,,---,0.00,VWS V13.01,2013-04-28 06:17:00,
2013-04-28 02:22:00,74.7,63.7,30.09,North,6,4.3,9.1,69,0.00,,---,0.00,VWS V13.01,2013-04-28 06:22:00,
2013-04-28 02:27:00,74.8,64.0,30.09,NNE,13,3.9,5.4,69,0.00,,---,0.00,VWS V13.01,2013-04-28 06:27:00,
2013-04-28 02:32:00,74.8,64.3,30.09,NE,34,6.5,7.5,70,0.00,,---,0.00,VWS V13.01,2013-04-28 06:32:00,
2013-04-28 02:37:00,74.7,64.7,30.09,NE,44,4.9,9.9,71,0.00,,---,0.00,VWS V13.01,2013-04-28 06:37:00,
2013-04-28 02:43:00,74.6,64.7,30.09,NNE,22,5.8,10.4,71,0.00,,---,0.00,VWS V13.01,2013-04-28 06:43:00,
2013-04-28 02:48:00,74.8,65.1,30.09,NE,41,9.0,9.0,72,0.00,,---,0.00,VWS V13.01,2013-04-28 06:48:00,
2013-04-28 02:53:00,74.5,65.6,30.09,NNE,15,5.3,6.0,74,0.00,,---,0.00,VWS V13.01,2013-04-28 06:53:00,
2013-04-28 02:58:00,74.3,65.6,30.09,NE,42,8.8,13.0,74,0.00,,---,0.00,VWS V13.01,2013-04-28 06:58:00,
2013-04-28 03:03:00,74.6,65.9,30.09,NE,46,6.8,6.8,74,0.00,,---,0.00,VWS V13.01,2013-04-28 07:03:00,
2013-04-28 03:08:00,74.3,65.3,30.08,NE,53,9.0,11.6,74,0.00,,---,0.00,VWS V13.01,2013-04-28 07:08:00,
2013-04-28 03:13:00,74.5,65.5,30.08,NE,53,7.9,16.3,74,0.00,,---,0.00,VWS V13.01,2013-04-28 07:13:00,
2013-04-28 03:18:00,74.3,65.5,30.08,NE,42,6.0,9.4,74,0.00,,---,0.00,VWS V13.01,2013-04-28 07:18:00,
2013-04-28 03:23:00,74.5,66.0,30.08,NE,46,5.6,8.3,75,0.00,,---,0.00,VWS V13.01,2013-04-28 07:23:00,
2013-04-28 03:28:00,74.3,65.3,30.08,NE,51,8.5,13.0,74,0.00,,---,0.00,VWS V13.01,2013-04-28 07:28:00,
2013-04-28 03:33:00,74.2,64.5,30.08,NE,44,8.1,9.8,72,0.00,,---,0.00,VWS V13.01,2013-04-28 07:33:00,
2013-04-28 03:38:00,74.4,64.3,30.08,North,6,2.4,4.7,71,0.00,,---,0.00,VWS V13.01,2013-04-28 07:38:00,
2013-04-28 03:43:00,74.2,64.3,30.07,NE,45,6.0,7.6,71,0.00,,---,0.00,VWS V13.01,2013-04-28 07:43:00,
2013-04-28 03:48:00,74.2,64.5,30.07,NE,39,6.3,8.2,72,0.00,,---,0.00,VWS V13.01,2013-04-28 07:48:00,
2013-04-28 03:53:00,74.3,64.6,30.07,NE,42,7.6,8.8,72,0.00,,---,0.00,VWS V13.01,2013-04-28 07:53:00,
2013-04-28 03:58:00,74.1,64.3,30.07,NNE,28,5.6,9.7,72,0.00,,---,0.00,VWS V13.01,2013-04-28 07:58:00,
2013-04-28 04:03:00,74.4,64.5,30.07,NE,51,5.9,10.7,71,0.00,,---,0.00,VWS V13.01,2013-04-28 08:03:00,
2013-04-28 04:08:00,74.4,64.7,30.07,NE,52,5.2,9.5,72,0.00,,---,0.00,VWS V13.01,2013-04-28 08:08:00,
2013-04-28 04:13:00,74.3,64.7,30.07,NE,37,3.9,9.0,72,0.00,,---,0.00,VWS V13.01,2013-04-28 08:13:00,
2013-04-28 04:18:00,74.3,64.6,30.07,NE,45,6.1,6.6,72,0.00,,---,0.00,VWS V13.01,2013-04-28 08:18:00,
2013-04-28 04:23:00,74.1,64.2,30.07,ENE,72,4.9,7.6,71,0.00,,---,0.00,VWS V13.01,2013-04-28 08:23:00,
2013-04-28 04:28:00,74.2,64.2,30.07,NNE,32,3.5,4.7,71,0.00,,---,0.00,VWS V13.01,2013-04-28 08:28:00,
2013-04-28 04:33:00,74.2,64.2,30.07,NE,51,4.0,4.2,71,0.00,,---,0.00,VWS V13.01,2013-04-28 08:33:00,
2013-04-28 04:38:00,74.2,64.7,30.07,ENE,62,3.2,6.8,72,0.00,,---,0.00,VWS V13.01,2013-04-28 08:38:00,
2013-04-28 04:43:00,74.0,64.4,30.07,NE,45,4.7,5.6,72,0.00,,---,0.00,VWS V13.01,2013-04-28 08:43:00,
2013-04-28 04:48:00,74.3,64.5,30.07,NNE,18,3.4,4.2,72,0.00,,---,0.00,VWS V13.01,2013-04-28 08:48:00,
2013-04-28 04:53:00,74.4,64.8,30.06,NE,44,9.3,9.3,72,0.00,,---,0.00,VWS V13.01,2013-04-28 08:53:00,
2013-04-28 04:58:00,74.1,64.6,30.06,NNE,14,7.1,9.4,72,0.00,,---,0.00,VWS V13.01,2013-04-28 08:58:00,
2013-04-28 05:03:00,74.3,64.9,30.06,North,11,8.3,9.6,72,0.00,,---,0.00,VWS V13.01,2013-04-28 09:03:00,
2013-04-28 05:08:00,74.4,65.0,30.06,NNE,25,6.9,7.5,73,0.00,,---,0.00,VWS V13.01,2013-04-28 09:08:00,
2013-04-28 05:13:00,74.5,65.1,30.06,NE,53,3.4,6.0,72,0.00,,---,0.00,VWS V13.01,2013-04-28 09:13:00,
2013-04-28 05:18:00,74.3,65.2,30.06,NNE,22,3.3,4.2,73,0.00,,---,0.00,VWS V13.01,2013-04-28 09:18:00,
2013-04-28 05:23:00,74.4,65.3,30.06,NE,42,5.2,6.8,73,0.00,,---,0.00,VWS V13.01,2013-04-28 09:23:00,
2013-04-28 05:28:00,74.5,65.5,30.06,NNE,21,2.2,5.0,74,0.00,,---,0.00,VWS V13.01,2013-04-28 09:28:00,
2013-04-28 05:33:00,74.4,65.4,30.06,NE,53,0.0,0.0,74,0.00,,---,0.00,VWS V13.01,2013-04-28 09:33:00,
2013-04-28 05:38:00,74.5,65.3,30.06,NE,53,0.0,0.0,73,0.00,,---,0.00,VWS V13.01,2013-04-28 09:38:00,
2013-04-28 05:43:00,74.3,64.8,30.06,NE,53,0.0,0.0,72,0.00,,---,0.00,VWS V13.01,2013-04-28 09:43:00,
2013-04-28 05:49:00,74.3,64.8,30.06,NE,53,0.0,0.0,72,0.00,,---,0.00,VWS V13.01,2013-04-28 09:49:00,
2013-04-28 05:54:00,74.4,64.5,30.06,NE,53,0.0,0.0,71,0.00,,---,0.00,VWS V13.01,2013-04-28 09:54:00,
2013-04-28 05:59:00,74.5,64.4,30.07,NE,53,0.0,0.0,71,0.00,,---,0.00,VWS V13.01,2013-04-28 09:59:00,
2013-04-28 06:04:00,74.5,64.1,30.07,NE,53,0.0,0.0,70,0.00,,---,0.00,VWS V13.01,2013-04-28 10:04:00,
2013-04-28 06:09:00,74.5,64.0,30.07,NE,53,0.0,0.0,70,0.00,,---,0.00,VWS V13.01,2013-04-28 10:09:00,
2013-04-28 06:14:00,74.4,64.3,30.07,NE,53,0.0,0.0,71,0.00,,---,0.00,VWS V13.01,2013-04-28 10:14:00,
2013-04-28 06:19:00,74.3,63.8,30.07,NE,53,0.0,0.0,70,0.00,,---,0.00,VWS V13.01,2013-04-28 10:19:00,
2013-04-28 06:24:00,74.6,63.6,30.07,NE,53,0.0,0.0,69,0.00,,---,0.00,VWS V13.01,2013-04-28 10:24:00,
2013-04-28 06:29:00,74.4,63.3,30.08,NE,53,0.0,0.0,68,0.00,,---,0.00,VWS V13.01,2013-04-28 10:29:00,
2013-04-28 06:34:00,74.3,63.4,30.08,NE,53,0.0,0.0,69,0.00,,---,0.00,VWS V13.01,2013-04-28 10:34:00,
2013-04-28 06:39:00,74.6,63.9,30.08,NE,53,0.0,0.0,69,0.00,,---,0.00,VWS V13.01,2013-04-28 10:39:00,
2013-04-28 06:44:00,74.5,64.3,30.08,NE,53,0.0,0.0,70,0.00,,---,0.00,VWS V13.01,2013-04-28 10:44:00,
2013-04-28 06:49:00,74.4,64.0,30.08,NE,53,0.0,0.0,70,0.00,,---,0.00,VWS V13.01,2013-04-28 10:49:00,
2013-04-28 06:54:00,74.3,63.9,30.08,NE,53,0.0,0.0,70,0.00,,---,0.00,VWS V13.01,2013-04-28 10:54:00,
2013-04-28 06:59:00,74.3,63.8,30.08,NE,53,0.0,0.0,70,0.00,,---,0.00,VWS V13.01,2013-04-28 10:59:00,
2013-04-28 07:04:00,74.4,63.4,30.08,NE,53,0.0,0.0,69,0.00,,---,0.00,VWS V13.01,2013-04-28 11:04:00,
2013-04-28 07:09:00,74.5,63.5,30.08,NE,53,0.0,0.0,69,0.00,,---,0.00,VWS V13.01,2013-04-28 11:09:00,
2013-04-28 07:14:00,74.4,63.1,30.08,NE,53,0.0,0.0,68,0.00,,---,0.00,VWS V13.01,2013-04-28 11:14:00,
2013-04-28 07:19:00,74.4,62.7,30.08,NE,53,0.0,0.0,67,0.00,,---,0.00,VWS V13.01,2013-04-28 11:19:00,
2013-04-28 07:24:00,74.6,62.7,30.08,NE,53,0.0,0.0,66,0.00,,---,0.00,VWS V13.01,2013-04-28 11:24:00,
2013-04-28 07:29:00,74.7,63.2,30.09,NE,53,0.0,0.0,67,0.00,,---,0.00,VWS V13.01,2013-04-28 11:29:00,
2013-04-28 07:34:00,75.1,64.6,30.08,NE,53,0.0,0.0,70,0.00,,---,0.00,VWS V13.01,2013-04-28 11:34:00,
2013-04-28 07:39:00,75.3,64.3,30.08,NE,53,0.0,0.0,69,0.00,,---,0.00,VWS V13.01,2013-04-28 11:39:00,
2013-04-28 07:44:00,75.3,64.1,30.08,NE,53,0.0,0.0,68,0.00,,---,0.00,VWS V13.01,2013-04-28 11:44:00,
2013-04-28 07:49:00,75.4,63.8,30.08,ENE,58,7.8,14.2,67,0.00,,---,0.00,VWS V13.01,2013-04-28 11:49:00,
2013-04-28 07:54:00,75.5,64.0,30.08,NNE,32,5.0,7.5,68,0.00,,---,0.00,VWS V13.01,2013-04-28 11:54:00,
2013-04-28 07:59:00,75.8,64.2,30.08,NE,44,7.9,9.7,67,0.00,,---,0.00,VWS V13.01,2013-04-28 11:59:00,
2013-04-28 08:04:00,76.0,63.8,30.08,NNE,24,12.3,12.3,66,0.00,,---,0.00,VWS V13.01,2013-04-28 12:04:00,
2013-04-28 08:09:00,76.2,63.5,30.08,NE,48,7.0,7.0,65,0.00,,---,0.00,VWS V13.01,2013-04-28 12:09:00,
2013-04-28 08:14:00,76.2,63.5,30.09,NNE,21,7.5,8.9,65,0.00,,---,0.00,VWS V13.01,2013-04-28 12:14:00,
2013-04-28 08:19:00,76.4,63.4,30.09,NE,55,7.3,11.3,64,0.00,,---,0.00,VWS V13.01,2013-04-28 12:19:00,
2013-04-28 08:24:00,76.6,63.9,30.09,North,6,5.4,5.4,65,0.00,,---,0.00,VWS V13.01,2013-04-28 12:24:00,
2013-04-28 08:29:00,76.8,63.3,30.09,NE,52,2.9,4.7,63,0.00,,---,0.00,VWS V13.01,2013-04-28 12:29:00,
2013-04-28 08:34:00,76.9,63.4,30.09,NNE,21,4.5,8.1,63,0.00,,---,0.00,VWS V13.01,2013-04-28 12:34:00,
2013-04-28 08:39:00,77.2,63.2,30.10,NE,46,4.8,7.1,62,0.00,,---,0.00,VWS V13.01,2013-04-28 12:39:00,
2013-04-28 08:44:00,77.4,63.8,30.10,East,79,5.3,6.3,63,0.00,,---,0.00,VWS V13.01,2013-04-28 12:44:00,
2013-04-28 08:49:00,77.2,63.3,30.10,NNE,22,9.9,11.4,62,0.00,,---,0.00,VWS V13.01,2013-04-28 12:49:00,
2013-04-28 08:54:00,77.4,63.3,30.10,NE,46,3.2,7.6,62,0.00,,---,0.00,VWS V13.01,2013-04-28 12:54:00,
2013-04-28 09:00:00,77.7,63.8,30.10,ENE,68,2.0,4.4,62,0.00,,---,0.00,VWS V13.01,2013-04-28 13:00:00,
2013-04-28 09:05:00,77.8,63.8,30.10,NNE,32,7.0,8.7,62,0.00,,---,0.00,VWS V13.01,2013-04-28 13:05:00,
2013-04-28 09:10:00,77.8,63.7,30.10,NE,48,7.3,8.8,62,0.00,,---,0.00,VWS V13.01,2013-04-28 13:10:00,
2013-04-28 09:15:00,78.0,63.3,30.10,NE,42,4.5,8.3,61,0.00,,---,0.00,VWS V13.01,2013-04-28 13:15:00,
2013-04-28 09:20:00,78.0,63.2,30.10,East,79,4.3,12.2,60,0.00,,---,0.00,VWS V13.01,2013-04-28 13:20:00,
2013-04-28 09:25:00,78.2,63.6,30.10,NNE,15,6.3,7.5,61,0.00,,---,0.00,VWS V13.01,2013-04-28 13:25:00,
2013-04-28 09:30:00,78.5,63.8,30.10,NE,35,5.3,6.1,61,0.00,,---,0.00,VWS V13.01,2013-04-28 13:30:00,
2013-04-28 09:35:00,78.2,63.6,30.11,North,10,4.2,13.0,61,0.00,,---,0.00,VWS V13.01,2013-04-28 13:35:00,
2013-04-28 09:40:00,78.2,64.4,30.11,ENE,58,4.2,8.3,62,0.00,,---,0.00,VWS V13.01,2013-04-28 13:40:00,
2013-04-28 09:45:00,78.0,64.0,30.11,East,79,2.4,4.3,62,0.00,,---,0.00,VWS V13.01,2013-04-28 13:45:00,
2013-04-28 09:50:00,78.5,64.1,30.11,ENE,73,5.0,8.2,61,0.00,,---,0.00,VWS V13.01,2013-04-28 13:50:00,
2013-04-28 09:55:00,78.9,64.1,30.11,SE,138,5.5,8.0,60,0.00,,---,0.00,VWS V13.01,2013-04-28 13:55:00,
2013-04-28 10:00:00,79.4,63.8,30.11,NNE,20,8.5,9.0,59,0.00,,---,0.00,VWS V13.01,2013-04-28 14:00:00,
2013-04-28 10:05:00,79.3,63.5,30.11,ENE,72,2.7,8.8,59,0.00,,---,0.00,VWS V13.01,2013-04-28 14:05:00,
2013-04-28 10:10:00,79.2,63.8,30.11,North,10,8.0,11.0,59,0.00,,---,0.00,VWS V13.01,2013-04-28 14:10:00,
2013-04-28 10:15:00,79.1,64.2,30.11,NE,37,4.3,5.5,60,0.00,,---,0.00,VWS V13.01,2013-04-28 14:15:00,
2013-04-28 10:20:00,79.5,64.3,30.11,NNE,27,5.8,9.9,60,0.00,,---,0.00,VWS V13.01,2013-04-28 14:20:00,
2013-04-28 10:25:00,79.7,63.8,30.11,NE,49,14.0,14.0,58,0.00,,---,0.00,VWS V13.01,2013-04-28 14:25:00,
2013-04-28 10:30:00,79.5,63.2,30.12,NE,39,10.3,13.0,58,0.00,,---,0.00,VWS V13.01,2013-04-28 14:30:00,
2013-04-28 10:35:00,80.0,64.1,30.12,NNE,32,3.2,9.1,58,0.00,,---,0.00,VWS V13.01,2013-04-28 14:35:00,
2013-04-28 10:40:00,79.3,63.5,30.12,NNE,25,7.3,12.6,58,0.00,,---,0.00,VWS V13.01,2013-04-28 14:40:00,
2013-04-28 10:45:00,78.9,63.8,30.11,SE,132,3.9,9.8,60,0.00,,---,0.00,VWS V13.01,2013-04-28 14:45:00,
2013-04-28 10:50:00,79.5,64.1,30.11,East,100,5.7,6.9,59,0.00,,---,0.00,VWS V13.01,2013-04-28 14:50:00,
2013-04-28 10:55:00,80.0,63.9,30.11,NE,51,1.7,11.8,58,0.00,,---,0.00,VWS V13.01,2013-04-28 14:55:00,
2013-04-28 11:00:00,80.2,64.1,30.11,ESE,118,5.7,7.8,58,0.00,,---,0.00,VWS V13.01,2013-04-28 15:00:00,
2013-04-28 11:05:00,80.2,63.8,30.11,NE,56,5.5,6.8,57,0.00,,---,0.00,VWS V13.01,2013-04-28 15:05:00,
2013-04-28 11:10:00,79.2,63.9,30.11,ENE,65,6.3,8.6,60,0.00,,---,0.00,VWS V13.01,2013-04-28 15:10:00,
2013-04-28 11:15:00,78.9,64.1,30.11,East,87,4.0,4.3,60,0.00,,---,0.00,VWS V13.01,2013-04-28 15:15:00,
2013-04-28 11:20:00,79.4,63.9,30.11,ENE,72,3.7,4.1,59,0.00,,---,0.00,VWS V13.01,2013-04-28 15:20:00,
2013-04-28 11:25:00,79.9,63.8,30.11,NNE,20,4.2,5.2,58,0.00,,---,0.00,VWS V13.01,2013-04-28 15:25:00,
2013-04-28 11:30:00,79.7,63.6,30.11,NE,38,9.5,10.5,58,0.00,,---,0.00,VWS V13.01,2013-04-28 15:30:00,
2013-04-28 11:35:00,80.0,63.8,30.11,ENE,68,4.8,5.1,58,0.00,,---,0.00,VWS V13.01,2013-04-28 15:35:00,
2013-04-28 11:40:00,79.5,64.0,30.10,North,11,9.7,9.7,59,0.00,,---,0.00,VWS V13.01,2013-04-28 15:40:00,
2013-04-28 11:45:00,79.7,64.8,30.10,NNE,20,4.3,7.2,60,0.00,,---,0.00,VWS V13.01,2013-04-28 15:45:00,
2013-04-28 11:50:00,79.9,64.0,30.11,NNE,14,8.5,8.9,58,0.00,,---,0.00,VWS V13.01,2013-04-28 15:50:00,
2013-04-28 11:55:00,79.8,64.7,30.10,NE,45,5.4,8.7,60,0.00,,---,0.00,VWS V13.01,2013-04-28 15:55:00,
2013-04-28 12:00:00,79.7,64.3,30.11,NE,46,11.6,15.0,59,0.00,,---,0.00,VWS V13.01,2013-04-28 16:00:00,
2013-04-28 12:06:00,80.1,64.2,30.10,NE,51,5.0,7.3,58,0.00,,---,0.00,VWS V13.01,2013-04-28 16:06:00,
2013-04-28 12:11:00,80.1,64.5,30.10,NE,34,6.3,7.6,59,0.00,,---,0.00,VWS V13.01,2013-04-28 16:11:00,
2013-04-28 12:16:00,80.4,64.0,30.10,NE,44,5.3,9.4,57,0.00,,---,0.00,VWS V13.01,2013-04-28 16:16:00,
2013-04-28 12:21:00,80.0,64.6,30.10,ENE,65,4.8,6.8,59,0.00,,---,0.00,VWS V13.01,2013-04-28 16:21:00,
2013-04-28 12:26:00,80.5,64.0,30.11,NE,37,9.3,9.3,57,0.00,,---,0.00,VWS V13.01,2013-04-28 16:26:00,
2013-04-28 12:31:00,80.6,64.0,30.10,ENE,58,8.6,8.6,57,0.00,,---,0.00,VWS V13.01,2013-04-28 16:31:00,
2013-04-28 12:36:00,81.0,63.9,30.10,NE,35,6.3,11.2,56,0.00,,---,0.00,VWS V13.01,2013-04-28 16:36:00,
2013-04-28 12:41:00,80.8,63.5,30.10,NE,55,2.9,8.7,56,0.00,,---,0.00,VWS V13.01,2013-04-28 16:41:00,
2013-04-28 12:46:00,80.4,63.7,30.10,NE,39,6.5,9.6,57,0.00,,---,0.00,VWS V13.01,2013-04-28 16:46:00,
2013-04-28 12:51:00,80.6,63.6,30.10,NNE,20,8.2,15.1,56,0.00,,---,0.00,VWS V13.01,2013-04-28 16:51:00,
2013-04-28 12:56:00,80.8,64.2,30.10,NNE,32,7.3,11.8,57,0.00,,---,0.00,VWS V13.01,2013-04-28 16:56:00,
2013-04-28 13:01:00,81.0,63.9,30.10,ENE,65,5.5,7.1,56,0.00,,---,0.00,VWS V13.01,2013-04-28 17:01:00,
2013-04-28 13:06:00,80.9,63.5,30.10,ENE,63,5.3,12.7,56,0.00,,---,0.00,VWS V13.01,2013-04-28 17:06:00,
2013-04-28 13:11:00,80.1,64.2,30.10,NNE,20,7.1,14.2,58,0.00,,---,0.00,VWS V13.01,2013-04-28 17:11:00,
2013-04-28 13:16:00,81.2,64.9,30.10,NE,35,4.2,7.9,58,0.00,,---,0.00,VWS V13.01,2013-04-28 17:16:00,
2013-04-28 13:21:00,81.0,64.2,30.10,NE,52,5.6,15.4,57,0.00,,---,0.00,VWS V13.01,2013-04-28 17:21:00,
2013-04-28 13:26:00,81.1,64.5,30.09,NNE,18,6.0,11.1,57,0.00,,---,0.00,VWS V13.01,2013-04-28 17:26:00,
2013-04-28 13:31:00,80.5,64.2,30.09,East,79,2.3,4.7,58,0.00,,---,0.00,VWS V13.01,2013-04-28 17:31:00,
2013-04-28 13:36:00,80.6,64.3,30.09,NNE,28,10.7,10.7,58,0.00,,---,0.00,VWS V13.01,2013-04-28 17:36:00,
2013-04-28 13:41:00,81.1,64.5,30.10,East,79,2.8,4.8,57,0.00,,---,0.00,VWS V13.01,2013-04-28 17:41:00,
2013-04-28 13:46:00,81.5,63.7,30.09,NNE,30,8.9,12.6,55,0.00,,---,0.00,VWS V13.01,2013-04-28 17:46:00,
2013-04-28 13:51:00,80.8,64.3,30.09,ENE,58,5.3,7.5,57,0.00,,---,0.00,VWS V13.01,2013-04-28 17:51:00,
2013-04-28 13:56:00,80.4,63.8,30.10,NNE,15,8.9,8.9,57,0.00,,---,0.00,VWS V13.01,2013-04-28 17:56:00,
2013-04-28 14:01:00,80.5,63.7,30.09,NNW,328,4.5,4.7,57,0.00,,---,0.00,VWS V13.01,2013-04-28 18:01:00,
2013-04-28 14:06:00,80.2,64.4,30.09,NE,55,6.6,8.0,59,0.00,,---,0.00,VWS V13.01,2013-04-28 18:06:00,
2013-04-28 14:11:00,79.9,64.0,30.09,East,79,6.1,8.0,58,0.00,,---,0.00,VWS V13.01,2013-04-28 18:11:00,
2013-04-28 14:16:00,80.1,63.8,30.08,NE,56,6.9,8.4,58,0.00,,---,0.00,VWS V13.01,2013-04-28 18:16:00,
2013-04-28 14:21:00,80.2,64.1,30.08,North,11,10.3,10.7,58,0.00,,---,0.00,VWS V13.01,2013-04-28 18:21:00,
2013-04-28 14:26:00,80.1,64.4,30.08,NNE,22,2.5,7.4,59,0.00,,---,0.00,VWS V13.01,2013-04-28 18:26:00,
2013-04-28 14:31:00,80.3,63.5,30.07,NNE,32,8.6,13.6,57,0.00,,---,0.00,VWS V13.01,2013-04-28 18:31:00,
2013-04-28 14:36:00,80.4,63.2,30.07,NNE,25,5.5,10.2,56,0.00,,---,0.00,VWS V13.01,2013-04-28 18:36:00,
2013-04-28 14:41:00,80.6,63.2,30.07,NE,52,9.4,11.0,55,0.00,,---,0.00,VWS V13.01,2013-04-28 18:41:00,
2013-04-28 14:47:00,80.8,63.7,30.07,North,357,5.7,10.1,56,0.00,,---,0.00,VWS V13.01,2013-04-28 18:47:00,
2013-04-28 14:52:00,80.2,63.5,30.07,NE,42,11.0,13.5,57,0.00,,---,0.00,VWS V13.01,2013-04-28 18:52:00,
2013-04-28 14:57:00,80.4,63.7,30.06,NE,44,5.6,7.5,57,0.00,,---,0.00,VWS V13.01,2013-04-28 18:57:00,
2013-04-28 15:02:00,81.1,63.5,30.06,NE,38,8.9,9.7,55,0.00,,---,0.00,VWS V13.01,2013-04-28 19:02:00,
2013-04-28 15:07:00,80.5,62.9,30.06,NE,55,6.2,13.1,55,0.00,,---,0.00,VWS V13.01,2013-04-28 19:07:00,
2013-04-28 15:12:00,80.9,63.2,30.05,East,83,3.4,7.2,55,0.00,,---,0.00,VWS V13.01,2013-04-28 19:12:00,
2013-04-28 15:17:00,81.3,63.2,30.05,East,94,3.9,4.7,54,0.00,,---,0.00,VWS V13.01,2013-04-28 19:17:00,
2013-04-28 15:22:00,81.5,62.9,30.05,NE,56,4.6,7.1,53,0.00,,---,0.00,VWS V13.01,2013-04-28 19:22:00,
2013-04-28 15:27:00,81.6,63.2,30.05,NE,42,3.4,6.0,54,0.00,,---,0.00,VWS V13.01,2013-04-28 19:27:00,
2013-04-28 15:32:00,80.7,62.9,30.04,NE,49,5.6,14.8,55,0.00,,---,0.00,VWS V13.01,2013-04-28 19:32:00,
2013-04-28 15:37:00,81.4,63.7,30.04,NE,41,5.2,5.2,55,0.00,,---,0.00,VWS V13.01,2013-04-28 19:37:00,
2013-04-28 15:42:00,81.1,63.1,30.04,North,359,8.9,8.9,54,0.00,,---,0.00,VWS V13.01,2013-04-28 19:42:00,
2013-04-28 15:47:00,81.3,63.4,30.04,NNE,18,4.9,5.3,55,0.00,,---,0.00,VWS V13.01,2013-04-28 19:47:00,
2013-04-28 15:52:00,81.5,63.2,30.03,NNE,17,9.3,9.3,54,0.00,,---,0.00,VWS V13.01,2013-04-28 19:52:00,
2013-04-28 15:57:00,81.0,63.5,30.03,NE,45,4.2,10.2,55,0.00,,---,0.00,VWS V13.01,2013-04-28 19:57:00,
2013-04-28 16:02:00,81.0,64.2,30.03,NNE,30,7.8,8.0,57,0.00,,---,0.00,VWS V13.01,2013-04-28 20:02:00,
2013-04-28 16:07:00,80.5,63.4,30.03,North,7,8.9,12.2,56,0.00,,---,0.00,VWS V13.01,2013-04-28 20:07:00,
2013-04-28 16:12:00,80.5,63.9,30.03,NE,49,3.6,7.6,57,0.00,,---,0.00,VWS V13.01,2013-04-28 20:12:00,
2013-04-28 16:17:00,80.7,64.2,30.03,East,79,3.9,6.1,57,0.00,,---,0.00,VWS V13.01,2013-04-28 20:17:00,
2013-04-28 16:22:00,80.7,64.4,30.02,East,100,4.2,8.0,58,0.00,,---,0.00,VWS V13.01,2013-04-28 20:22:00,
2013-04-28 16:27:00,80.5,63.7,30.02,NNE,13,9.4,13.2,57,0.00,,---,0.00,VWS V13.01,2013-04-28 20:27:00,
2013-04-28 16:32:00,80.4,64.5,30.02,NNE,22,8.8,11.3,58,0.00,,---,0.00,VWS V13.01,2013-04-28 20:32:00,
2013-04-28 16:37:00,80.5,65.1,30.02,ENE,70,4.7,5.2,60,0.00,,---,0.00,VWS V13.01,2013-04-28 20:37:00,
2013-04-28 16:42:00,80.9,64.2,30.02,East,86,5.2,9.6,57,0.00,,---,0.00,VWS V13.01,2013-04-28 20:42:00,
2013-04-28 16:48:00,81.2,63.9,30.02,East,79,2.9,8.5,56,0.00,,---,0.00,VWS V13.01,2013-04-28 20:48:00,
2013-04-28 16:53:00,80.6,64.8,30.02,East,79,3.5,5.5,59,0.00,,---,0.00,VWS V13.01,2013-04-28 20:53:00,
2013-04-28 16:58:00,80.4,64.6,30.01,NNE,17,6.3,9.0,59,0.00,,---,0.00,VWS V13.01,2013-04-28 20:58:00,
2013-04-28 17:03:00,80.4,64.0,30.01,NE,46,10.5,10.5,58,0.00,,---,0.00,VWS V13.01,2013-04-28 21:03:00,
2013-04-28 17:08:00,79.9,64.3,30.01,NNE,25,5.5,8.9,59,0.00,,---,0.00,VWS V13.01,2013-04-28 21:08:00,
2013-04-28 17:13:00,79.7,64.4,30.01,NE,34,6.7,10.4,60,0.00,,---,0.00,VWS V13.01,2013-04-28 21:13:00,
2013-04-28 17:18:00,79.8,64.4,30.00,East,84,4.7,9.4,59,0.00,,---,0.00,VWS V13.01,2013-04-28 21:18:00,
2013-04-28 17:23:00,79.8,64.9,30.00,NE,35,10.0,15.2,60,0.00,,---,0.00,VWS V13.01,2013-04-28 21:23:00,
2013-04-28 17:28:00,79.4,64.6,30.00,North,353,8.2,10.6,60,0.00,,---,0.00,VWS V13.01,2013-04-28 21:28:00,
2013-04-28 17:33:00,79.7,65.1,30.00,NE,45,6.2,7.0,61,0.00,,---,0.00,VWS V13.01,2013-04-28 21:33:00,
2013-04-28 17:38:00,79.7,64.9,30.00,NE,55,7.5,8.8,61,0.00,,---,0.00,VWS V13.01,2013-04-28 21:38:00,
2013-04-28 17:43:00,79.0,64.2,30.00,NNE,13,4.3,8.3,60,0.00,,---,0.00,VWS V13.01,2013-04-28 21:43:00,
2013-04-28 17:48:00,79.0,63.9,30.00,East,79,7.3,7.3,60,0.00,,---,0.00,VWS V13.01,2013-04-28 21:48:00,
2013-04-28 17:53:00,79.3,64.3,30.00,East,94,2.0,8.4,60,0.00,,---,0.00,VWS V13.01,2013-04-28 21:53:00,
2013-04-28 17:58:00,79.2,64.7,29.99,East,79,3.9,8.4,61,0.00,,---,0.00,VWS V13.01,2013-04-28 21:58:00,
2013-04-28 18:03:00,78.8,64.2,29.99,NE,44,7.5,13.0,61,0.00,,---,0.00,VWS V13.01,2013-04-28 22:03:00,
2013-04-28 18:08:00,78.8,64.0,29.99,NE,38,4.5,5.2,60,0.00,,---,0.00,VWS V13.01,2013-04-28 22:08:00,
2013-04-28 18:13:00,78.9,63.4,29.99,NE,51,7.3,10.4,59,0.00,,---,0.00,VWS V13.01,2013-04-28 22:13:00,
2013-04-28 18:18:00,79.1,64.3,29.99,NE,45,5.5,9.6,60,0.00,,---,0.00,VWS V13.01,2013-04-28 22:18:00,
2013-04-28 18:23:00,79.3,64.2,30.00,NE,38,3.9,6.4,60,0.00,,---,0.00,VWS V13.01,2013-04-28 22:23:00,
2013-04-28 18:28:00,79.4,63.7,29.99,NNE,30,4.3,7.4,59,0.00,,---,0.00,VWS V13.01,2013-04-28 22:28:00,
2013-04-28 18:34:00,79.1,63.4,29.99,NE,46,3.5,5.5,59,0.00,,---,0.00,VWS V13.01,2013-04-28 22:34:00,
2013-04-28 18:39:00,79.0,63.2,29.99,NE,45,3.5,4.8,58,0.00,,---,0.00,VWS V13.01,2013-04-28 22:39:00,
2013-04-28 18:44:00,79.3,63.8,30.00,East,79,2.9,2.9,59,0.00,,---,0.00,VWS V13.01,2013-04-28 22:44:00,
2013-04-28 18:49:00,79.1,63.2,30.00,North,4,5.9,6.1,58,0.00,,---,0.00,VWS V13.01,2013-04-28 22:49:00,
2013-04-28 18:54:00,79.0,63.9,30.00,NE,39,2.1,8.0,60,0.00,,---,0.00,VWS V13.01,2013-04-28 22:54:00,
2013-04-28 18:59:00,78.8,63.2,29.99,NE,35,6.0,6.5,59,0.00,,---,0.00,VWS V13.01,2013-04-28 22:59:00,
2013-04-28 19:04:00,78.7,62.6,30.00,East,79,3.5,6.6,58,0.00,,---,0.00,VWS V13.01,2013-04-28 23:04:00,
2013-04-28 19:09:00,78.4,62.8,30.00,ESE,110,1.4,4.2,59,0.00,,---,0.00,VWS V13.01,2013-04-28 23:09:00,
2013-04-28 19:14:00,78.3,63.6,30.00,East,94,2.4,7.5,61,0.00,,---,0.00,VWS V13.01,2013-04-28 23:14:00,
2013-04-28 19:19:00,78.3,63.1,30.00,NE,39,2.7,3.6,60,0.00,,---,0.00,VWS V13.01,2013-04-28 23:19:00,
2013-04-28 19:24:00,78.1,62.5,30.00,NE,35,3.9,7.6,59,0.00,,---,0.00,VWS V13.01,2013-04-28 23:24:00,
2013-04-28 19:29:00,78.1,63.3,30.00,ENE,75,3.7,6.8,60,0.00,,---,0.00,VWS V13.01,2013-04-28 23:29:00,
2013-04-28 19:34:00,77.5,62.4,30.00,NE,37,7.0,8.5,60,0.00,,---,0.00,VWS V13.01,2013-04-28 23:34:00,
2013-04-28 19:39:00,77.2,61.1,30.00,North,3,6.3,10.0,58,0.00,,---,0.00,VWS V13.01,2013-04-28 23:39:00,
2013-04-28 19:44:00,77.3,62.1,30.00,North,354,3.0,6.5,59,0.00,,---,0.00,VWS V13.01,2013-04-28 23:44:00,
2013-04-28 19:49:00,77.2,62.4,30.00,NE,51,4.5,6.8,60,0.00,,---,0.00,VWS V13.01,2013-04-28 23:49:00,
2013-04-28 19:54:00,77.0,62.3,30.00,NE,49,3.4,5.0,60,0.00,,---,0.00,VWS V13.01,2013-04-28 23:54:00,
2013-04-28 19:59:00,76.7,62.6,30.01,ENE,65,4.0,8.0,62,0.00,,---,0.00,VWS V13.01,2013-04-28 23:59:00,
2013-04-28 20:04:00,76.8,63.4,30.01,NE,52,4.6,7.5,63,0.00,,---,0.00,VWS V13.01,2013-04-29 00:04:00,
2013-04-28 20:09:00,76.7,63.5,30.01,NNE,18,6.3,7.3,64,0.00,,---,0.00,VWS V13.01,2013-04-29 00:09:00,
2013-04-28 20:14:00,76.6,62.9,30.01,NE,41,6.0,9.7,63,0.00,,---,0.00,VWS V13.01,2013-04-29 00:14:00,
2013-04-28 20:19:00,76.7,63.5,30.01,East,86,2.3,5.3,64,0.00,,---,0.00,VWS V13.01,2013-04-29 00:19:00,
2013-04-28 20:24:00,76.6,63.3,30.01,NNE,21,5.0,8.1,64,0.00,,---,0.00,VWS V13.01,2013-04-29 00:24:00,
2013-04-28 20:29:00,76.4,62.9,30.01,NNE,30,2.7,6.7,63,0.00,,---,0.00,VWS V13.01,2013-04-29 00:29:00,
2013-04-28 20:34:00,76.3,62.9,30.01,NE,51,1.9,6.1,63,0.00,,---,0.00,VWS V13.01,2013-04-29 00:34:00,
2013-04-28 20:39:00,76.3,62.5,30.01,ENE,59,4.5,7.9,62,0.00,,---,0.00,VWS V13.01,2013-04-29 00:39:00,
2013-04-28 20:44:00,76.3,63.0,30.00,NE,45,6.2,9.5,64,0.00,,---,0.00,VWS V13.01,2013-04-29 00:44:00,
2013-04-28 20:49:00,76.2,63.1,30.00,NE,52,1.6,7.8,64,0.00,,---,0.00,VWS V13.01,2013-04-29 00:49:00,
2013-04-28 20:54:00,76.3,63.2,30.00,NNE,32,5.7,7.0,64,0.00,,---,0.00,VWS V13.01,2013-04-29 00:54:00,
2013-04-28 20:59:00,76.1,62.7,30.01,NE,48,3.8,8.9,63,0.00,,---,0.00,VWS V13.01,2013-04-29 00:59:00,
2013-04-28 21:04:00,76.2,62.8,30.02,North,354,1.2,4.6,63,0.00,,---,0.00,VWS V13.01,2013-04-29 01:04:00,
2013-04-28 21:09:00,76.2,62.7,30.02,NE,44,1.6,6.6,63,0.00,,---,0.00,VWS V13.01,2013-04-29 01:09:00,
2013-04-28 21:14:00,76.4,63.0,30.02,North,359,3.2,8.9,63,0.00,,---,0.00,VWS V13.01,2013-04-29 01:14:00,
2013-04-28 21:19:00,76.4,62.8,30.01,ENE,62,7.6,9.1,63,0.00,,---,0.00,VWS V13.01,2013-04-29 01:19:00,
2013-04-28 21:24:00,76.3,62.9,30.02,NE,34,2.9,8.3,63,0.00,,---,0.00,VWS V13.01,2013-04-29 01:24:00,
2013-04-28 21:29:00,76.4,63.1,30.02,NE,51,2.2,3.8,63,0.00,,---,0.00,VWS V13.01,2013-04-29 01:29:00,
2013-04-28 21:34:00,76.4,63.1,30.02,ENE,70,4.2,5.9,64,0.00,,---,0.00,VWS V13.01,2013-04-29 01:34:00,
2013-04-28 21:39:00,76.2,63.2,30.02,NE,55,3.9,5.7,64,0.00,,---,0.00,VWS V13.01,2013-04-29 01:39:00,
2013-04-28 21:44:00,76.5,64.0,30.02,NE,38,4.9,6.6,65,0.00,,---,0.00,VWS V13.01,2013-04-29 01:44:00,
2013-04-28 21:49:00,76.4,63.5,30.02,NE,48,3.1,6.0,64,0.00,,---,0.00,VWS V13.01,2013-04-29 01:49:00,
2013-04-28 21:54:00,76.4,62.7,30.02,NE,53,1.4,4.0,62,0.00,,---,0.00,VWS V13.01,2013-04-29 01:54:00,
2013-04-28 21:59:00,76.5,62.4,30.03,NE,45,3.2,7.3,62,0.00,,---,0.00,VWS V13.01,2013-04-29 01:59:00,
2013-04-28 22:04:00,76.4,62.4,30.03,ENE,66,1.0,2.1,62,0.00,,---,0.00,VWS V13.01,2013-04-29 02:04:00,
2013-04-28 22:09:00,76.5,62.4,30.03,NE,55,3.2,5.8,62,0.00,,---,0.00,VWS V13.01,2013-04-29 02:09:00,
2013-04-28 22:14:00,76.4,63.4,30.03,NE,37,4.8,7.5,64,0.00,,---,0.00,VWS V13.01,2013-04-29 02:14:00,
2013-04-28 22:19:00,76.5,63.9,30.03,NE,49,1.1,1.9,65,0.00,,---,0.00,VWS V13.01,2013-04-29 02:19:00,
2013-04-28 22:24:00,76.7,63.7,30.04,East,79,2.8,4.5,64,0.00,,---,0.00,VWS V13.01,2013-04-29 02:24:00,
2013-04-28 22:29:00,76.5,63.3,30.03,NE,49,3.5,4.7,64,0.00,,---,0.00,VWS V13.01,2013-04-29 02:29:00,
2013-04-28 22:34:00,76.6,63.2,30.03,NNE,27,1.4,3.6,63,0.00,,---,0.00,VWS V13.01,2013-04-29 02:34:00,
2013-04-28 22:39:00,76.3,62.6,30.03,East,79,1.7,7.0,63,0.00,,---,0.00,VWS V13.01,2013-04-29 02:39:00,
2013-04-28 22:44:00,76.2,62.7,30.03,East,100,4.2,11.1,63,0.00,,---,0.00,VWS V13.01,2013-04-29 02:44:00,
2013-04-28 22:49:00,76.4,62.7,30.03,NE,46,2.4,5.4,62,0.00,,---,0.00,VWS V13.01,2013-04-29 02:49:00,
2013-04-28 22:54:00,76.5,62.8,30.03,ESE,105,2.1,4.4,63,0.00,,---,0.00,VWS V13.01,2013-04-29 02:54:00,
2013-04-28 22:59:00,76.4,62.8,30.03,ENE,60,2.5,6.5,63,0.00,,---,0.00,VWS V13.01,2013-04-29 02:59:00,
2013-04-28 23:04:00,76.2,62.6,30.04,ENE,58,5.0,6.6,63,0.00,,---,0.00,VWS V13.01,2013-04-29 03:04:00,
2013-04-28 23:09:00,76.3,62.8,30.04,ENE,63,2.7,4.8,63,0.00,,---,0.00,VWS V13.01,2013-04-29 03:09:00,
2013-04-28 23:14:00,76.3,63.7,30.04,NE,55,3.5,5.0,65,0.00,,---,0.00,VWS V13.01,2013-04-29 03:14:00,
2013-04-28 23:19:00,76.2,63.9,30.04,NE,42,1.7,5.7,66,0.00,,---,0.00,VWS V13.01,2013-04-29 03:19:00,
2013-04-28 23:24:00,76.3,64.3,30.04,NNE,27,1.6,7.5,66,0.00,,---,0.00,VWS V13.01,2013-04-29 03:24:00,
2013-04-28 23:29:00,76.3,63.8,30.04,East,89,4.0,8.6,65,0.00,,---,0.00,VWS V13.01,2013-04-29 03:29:00,
2013-04-28 23:34:00,76.2,63.7,30.03,ESE,121,3.0,7.1,65,0.00,,---,0.00,VWS V13.01,2013-04-29 03:34:00,
2013-04-28 23:39:00,76.4,63.9,30.03,East,79,2.3,6.5,65,0.00,,---,0.00,VWS V13.01,2013-04-29 03:39:00,
2013-04-28 23:44:00,76.2,63.5,30.03,ENE,72,1.4,10.4,65,0.00,,---,0.00,VWS V13.01,2013-04-29 03:44:00,
2013-04-28 23:49:00,76.2,64.1,30.03,East,82,2.1,7.1,66,0.00,,---,0.00,VWS V13.01,2013-04-29 03:49:00,
2013-04-28 23:54:00,76.2,64.2,30.03,NE,39,5.7,5.9,66,0.00,,---,0.00,VWS V13.01,2013-04-29 03:54:00,
2013-04-28 23:59:00,76.2,63.3,30.03,NE,49,2.7,5.7,64,0.00,,---,0.00,VWS V13.01,2013-04-29 03:59:00,